createdAt,value
2022-11-07T00:00:16.969Z,9.40
2022-11-07T00:02:46.447Z,9.37
2022-11-07T00:05:16.388Z,9.45
2022-11-07T00:07:45.749Z,9.48
2022-11-07T00:10:15.216Z,9.48
2022-11-07T00:12:44.666Z,9.63
2022-11-07T00:15:15.488Z,9.66
2022-11-07T00:17:44.873Z,9.68
2022-11-07T00:20:14.342Z,9.74
2022-11-07T00:22:43.755Z,9.70
2022-11-07T00:25:13.185Z,9.69
2022-11-07T00:27:42.689Z,9.63
2022-11-07T00:30:15.510Z,9.69
2022-11-07T00:32:45.000Z,9.72
2022-11-07T00:35:14.572Z,9.76
2022-11-07T00:37:43.980Z,9.72
2022-11-07T00:40:14.076Z,9.77
2022-11-07T00:42:43.567Z,9.77
2022-11-07T00:45:13.352Z,9.88
2022-11-07T00:47:44.103Z,9.88
2022-11-07T00:50:13.524Z,9.88
2022-11-07T00:52:42.985Z,9.82
2022-11-07T00:55:13.013Z,9.77
2022-11-07T00:57:42.410Z,9.76
2022-11-07T01:00:14.799Z,9.81
2022-11-07T01:03:05.527Z,9.87
2022-11-07T01:05:33.942Z,9.94
2022-11-07T01:08:03.473Z,10.00
2022-11-07T01:10:33.416Z,10.03
2022-11-07T01:13:02.846Z,10.05
2022-11-07T01:15:32.223Z,9.92
2022-11-07T01:18:02.991Z,9.86
2022-11-07T01:20:32.405Z,9.80
2022-11-07T01:23:01.770Z,9.77
2022-11-07T01:25:31.303Z,9.64
2022-11-07T01:28:00.714Z,9.63
2022-11-07T01:30:30.113Z,9.49
2022-11-07T01:32:59.770Z,9.43
2022-11-07T01:35:30.537Z,9.32
2022-11-07T01:38:00.447Z,9.29
2022-11-07T01:40:30.645Z,9.29
2022-11-07T01:43:00.376Z,9.19
2022-11-07T01:45:32.048Z,9.25
2022-11-07T01:48:03.339Z,9.14
2022-11-07T01:50:34.125Z,9.16
2022-11-07T01:53:03.799Z,9.18
2022-11-07T01:55:36.651Z,9.10
2022-11-07T01:58:10.092Z,9.14
2022-11-07T02:00:40.115Z,9.24
2022-11-07T02:03:14.039Z,9.28
2022-11-07T02:05:50.374Z,9.34
2022-11-07T02:08:20.909Z,9.35
2022-11-07T02:10:51.004Z,9.36
2022-11-07T02:13:27.659Z,9.45
2022-11-07T02:16:01.072Z,9.54
2022-11-07T02:18:31.919Z,9.60
2022-11-07T02:21:13.589Z,9.66
2022-11-07T02:23:52.876Z,9.69
2022-11-07T02:26:25.651Z,9.66
2022-11-07T02:28:58.065Z,9.65
2022-11-07T02:31:27.555Z,9.65
2022-11-07T02:33:57.063Z,9.69
2022-11-07T02:36:27.300Z,9.72
2022-11-07T02:39:00.836Z,9.77
2022-11-07T02:41:35.668Z,9.84
2022-11-07T02:44:11.266Z,9.91
2022-11-07T02:46:41.695Z,9.93
2022-11-07T02:49:11.100Z,10.03
2022-11-07T02:51:40.627Z,10.04
2022-11-07T02:54:10.105Z,10.09
2022-11-07T02:56:40.892Z,10.04
2022-11-07T02:59:10.453Z,9.99
2022-11-07T03:01:40.110Z,9.99
2022-11-07T03:04:09.931Z,9.88
2022-11-07T03:06:39.353Z,9.83
2022-11-07T03:09:08.737Z,9.82
2022-11-07T03:11:38.116Z,9.87
2022-11-07T03:14:08.836Z,9.88
2022-11-07T03:16:38.326Z,9.90
2022-11-07T03:19:07.703Z,9.80
2022-11-07T03:21:37.098Z,9.76
2022-11-07T03:24:07.517Z,9.73
2022-11-07T03:26:36.911Z,9.76
2022-11-07T03:29:06.564Z,9.77
2022-11-07T03:31:37.659Z,9.67
2022-11-07T03:34:07.023Z,9.66
2022-11-07T03:36:36.482Z,9.56
2022-11-07T03:39:05.952Z,9.46
2022-11-07T03:41:35.363Z,9.40
2022-11-07T03:44:04.995Z,9.38
2022-11-07T03:46:35.766Z,9.36
2022-11-07T03:49:05.407Z,9.47
2022-11-07T03:51:34.806Z,9.37
2022-11-07T03:54:04.540Z,9.35
2022-11-07T03:56:33.955Z,9.29
2022-11-07T03:59:03.490Z,9.28
2022-11-07T04:01:33.316Z,9.23
2022-11-07T04:04:04.248Z,9.26
2022-11-07T04:06:33.663Z,9.10
2022-11-07T04:09:03.056Z,9.06
2022-11-07T04:11:49.843Z,8.95
2022-11-07T04:14:36.630Z,8.89
2022-11-07T04:17:20.958Z,8.72
2022-11-07T04:19:55.938Z,8.66
2022-11-07T04:22:27.136Z,8.51
2022-11-07T04:24:56.515Z,8.46
2022-11-07T04:27:42.928Z,8.37
2022-11-07T04:30:23.729Z,8.26
2022-11-07T04:32:55.824Z,8.13
2022-11-07T04:35:30.216Z,8.05
2022-11-07T04:38:00.570Z,7.96
2022-11-07T04:40:31.421Z,7.85
2022-11-07T04:43:01.011Z,7.79
2022-11-07T04:45:30.413Z,7.69
2022-11-07T04:47:59.876Z,7.55
2022-11-07T04:50:30.703Z,7.41
2022-11-07T04:53:00.063Z,7.26
2022-11-07T04:55:31.263Z,7.15
2022-11-07T04:58:00.667Z,7.09
2022-11-07T05:00:30.069Z,7.03
2022-11-07T05:02:59.628Z,7.02
2022-11-07T05:05:30.672Z,7.00
2022-11-07T05:08:00.078Z,6.95
2022-11-07T05:10:31.030Z,6.89
2022-11-07T05:13:00.437Z,6.81
2022-11-07T05:15:29.836Z,6.72
2022-11-07T05:17:59.248Z,6.62
2022-11-07T05:20:33.826Z,6.54
2022-11-07T05:23:17.759Z,6.42
2022-11-07T05:25:50.522Z,6.26
2022-11-07T05:28:31.190Z,6.11
2022-11-07T05:31:07.000Z,5.96
2022-11-07T05:33:36.947Z,5.85
2022-11-07T05:36:21.149Z,5.67
2022-11-07T05:38:53.417Z,5.57
2022-11-07T05:41:23.596Z,5.46
2022-11-07T05:43:53.003Z,5.34
2022-11-07T05:46:22.397Z,5.26
2022-11-07T05:48:56.575Z,5.19
2022-11-07T05:51:30.417Z,5.10
2022-11-07T05:53:59.807Z,5.10
2022-11-07T05:56:29.376Z,5.05
2022-11-07T05:58:59.078Z,4.98
2022-11-07T06:01:28.570Z,4.92
2022-11-07T06:03:58.459Z,4.89
2022-11-07T06:06:29.353Z,4.86
2022-11-07T06:08:59.100Z,4.86
2022-11-07T06:11:28.840Z,4.86
2022-11-07T06:13:58.300Z,4.88
2022-11-07T06:16:29.020Z,4.89
2022-11-07T06:18:58.560Z,4.89
2022-11-07T06:21:29.606Z,4.98
2022-11-07T06:24:00.046Z,5.03
2022-11-07T06:26:29.458Z,5.15
2022-11-07T06:28:58.845Z,5.33
2022-11-07T06:31:28.251Z,5.61
2022-11-07T06:33:57.799Z,5.91
2022-11-07T06:36:27.283Z,6.02
2022-11-07T06:38:58.603Z,6.14
2022-11-07T06:41:28.224Z,6.30
2022-11-07T06:43:57.790Z,6.42
2022-11-07T06:46:28.145Z,6.39
2022-11-07T06:48:57.817Z,6.45
2022-11-07T06:51:29.388Z,6.47
2022-11-07T06:54:00.213Z,6.51
2022-11-07T06:56:29.652Z,6.53
2022-11-07T06:58:59.006Z,6.62
2022-11-07T07:01:28.609Z,6.68
2022-11-07T07:03:59.986Z,6.86
2022-11-07T07:06:56.045Z,6.99
2022-11-07T07:09:28.242Z,7.05
2022-11-07T07:11:57.889Z,7.26
2022-11-07T07:14:27.430Z,7.58
2022-11-07T07:16:58.797Z,7.76
2022-11-07T07:19:30.796Z,8.01
2022-11-07T07:22:00.303Z,8.19
2022-11-07T07:24:31.156Z,8.28
2022-11-07T07:27:00.609Z,8.42
2022-11-07T07:29:29.986Z,8.62
2022-11-07T07:31:59.579Z,8.77
2022-11-07T07:34:29.240Z,8.90
2022-11-07T07:36:58.665Z,8.99
2022-11-07T07:39:28.144Z,9.08
2022-11-07T07:41:58.989Z,9.30
2022-11-07T07:44:28.502Z,9.39
2022-11-07T07:46:57.971Z,9.57
2022-11-07T07:49:27.440Z,9.72
2022-11-07T07:51:57.559Z,9.82
2022-11-07T07:54:27.049Z,9.93
2022-11-07T07:56:57.823Z,10.04
2022-11-07T07:59:27.342Z,10.12
2022-11-07T08:01:57.539Z,10.22
2022-11-07T08:04:27.602Z,10.28
2022-11-07T08:06:57.193Z,10.35
2022-11-07T08:09:26.572Z,10.41
2022-11-07T08:11:55.961Z,10.49
2022-11-07T08:14:26.686Z,10.59
2022-11-07T08:16:56.161Z,10.70
2022-11-07T08:19:26.329Z,10.74
2022-11-07T08:21:55.743Z,10.80
2022-11-07T08:24:25.239Z,10.85
2022-11-07T08:26:54.772Z,11.00
2022-11-07T08:29:24.164Z,11.03
2022-11-07T08:31:54.957Z,11.04
2022-11-07T08:34:24.720Z,11.16
2022-11-07T08:36:54.260Z,11.21
2022-11-07T08:39:23.729Z,11.25
2022-11-07T08:41:55.077Z,11.35
2022-11-07T08:44:24.515Z,11.45
2022-11-07T08:46:55.264Z,11.47
2022-11-07T08:49:24.926Z,11.52
2022-11-07T08:51:54.375Z,11.52
2022-11-07T08:54:25.716Z,11.57
2022-11-07T08:56:55.309Z,11.70
2022-11-07T08:59:24.719Z,11.72
2022-11-07T09:02:36.960Z,11.81
2022-11-07T09:04:45.247Z,11.93
2022-11-07T09:07:14.810Z,12.01
2022-11-07T09:09:44.273Z,12.07
2022-11-07T09:12:13.687Z,12.14
2022-11-07T09:14:43.067Z,12.20
2022-11-07T09:17:13.879Z,12.31
2022-11-07T09:19:43.277Z,12.36
2022-11-07T09:22:12.724Z,12.35
2022-11-07T09:24:42.140Z,12.41
2022-11-07T09:27:11.664Z,12.57
2022-11-07T09:29:41.219Z,12.62
2022-11-07T09:32:38.238Z,12.75
2022-11-07T09:35:04.680Z,12.85
2022-11-07T09:37:34.608Z,12.99
2022-11-07T09:40:04.639Z,13.09
2022-11-07T09:42:47.705Z,13.08
2022-11-07T09:45:17.886Z,13.24
2022-11-07T09:47:56.021Z,13.38
2022-11-07T09:50:35.253Z,13.40
2022-11-07T09:53:13.614Z,13.46
2022-11-07T09:55:52.848Z,13.44
2022-11-07T09:58:32.884Z,13.50
2022-11-07T10:01:07.707Z,13.52
2022-11-07T10:03:43.165Z,13.45
2022-11-07T10:06:28.996Z,13.38
2022-11-07T10:09:13.143Z,13.32
2022-11-07T10:11:51.453Z,13.29
2022-11-07T10:14:35.755Z,13.34
2022-11-07T10:17:21.738Z,13.40
2022-11-07T10:20:14.732Z,13.41
2022-11-07T10:23:09.563Z,13.53
2022-11-07T10:25:49.486Z,13.48
2022-11-07T10:28:22.106Z,13.43
2022-11-07T10:30:55.516Z,13.44
2022-11-07T10:33:41.118Z,13.51
2022-11-07T10:36:23.748Z,13.64
2022-11-07T10:38:55.267Z,13.67
2022-11-07T10:41:28.186Z,13.72
2022-11-07T10:44:03.753Z,13.75
2022-11-07T10:46:41.289Z,13.80
2022-11-07T10:49:23.009Z,13.81
2022-11-07T10:51:53.656Z,13.78
2022-11-07T10:54:31.304Z,13.82
2022-11-07T10:57:06.965Z,13.75
2022-11-07T10:59:41.492Z,13.71
2022-11-07T11:02:23.085Z,13.66
2022-11-07T11:04:56.158Z,13.67
2022-11-07T11:07:33.755Z,13.60
2022-11-07T11:10:20.123Z,13.65
2022-11-07T11:12:50.906Z,13.65
2022-11-07T11:15:23.823Z,13.64
2022-11-07T11:18:03.127Z,13.57
2022-11-07T11:20:39.816Z,13.57
2022-11-07T11:23:23.673Z,13.64
2022-11-07T11:26:03.140Z,13.63
2022-11-07T11:28:40.965Z,13.67
2022-11-07T11:31:30.928Z,13.73
2022-11-07T11:34:11.349Z,13.66
2022-11-07T11:36:47.042Z,13.63
2022-11-07T11:39:27.143Z,13.70
2022-11-07T11:42:00.322Z,13.69
2022-11-07T11:44:39.474Z,13.65
2022-11-07T11:47:17.808Z,13.68
2022-11-07T11:49:52.235Z,13.71
2022-11-07T11:52:25.894Z,13.77
2022-11-07T11:54:57.923Z,13.74
2022-11-07T11:57:40.169Z,13.80
2022-11-07T12:00:15.685Z,13.89
2022-11-07T12:03:14.550Z,13.96
2022-11-07T12:06:13.142Z,14.02
2022-11-07T12:09:38.363Z,14.05
2022-11-07T12:12:30.354Z,14.16
2022-11-07T12:15:30.612Z,14.05
2022-11-07T12:18:12.016Z,14.13
2022-11-07T12:20:59.056Z,14.15
2022-11-07T12:23:49.884Z,14.13
2022-11-07T12:26:29.529Z,14.07
2022-11-07T12:29:16.608Z,14.06
2022-11-07T12:32:08.509Z,14.02
2022-11-07T12:35:02.737Z,14.03
2022-11-07T12:38:04.310Z,14.02
2022-11-07T12:40:49.337Z,14.04
2022-11-07T12:43:45.923Z,13.96
2022-11-07T12:46:29.044Z,13.92
2022-11-07T12:49:40.720Z,13.97
2022-11-07T12:52:30.396Z,14.04
2022-11-07T12:55:04.144Z,14.20
2022-11-07T12:57:57.348Z,14.16
2022-11-07T13:00:30.443Z,14.21
2022-11-07T13:03:46.867Z,14.20
2022-11-07T13:06:26.918Z,14.17
2022-11-07T13:09:14.427Z,14.13
2022-11-07T13:11:54.007Z,14.10
2022-11-07T13:14:33.018Z,14.17
2022-11-07T13:17:48.021Z,14.26
2022-11-07T13:23:47.559Z,14.41
2022-11-07T13:26:46.512Z,14.44
2022-11-07T13:29:34.165Z,14.37
2022-11-07T13:32:10.971Z,14.29
2022-11-07T13:34:51.225Z,14.36
2022-11-07T13:37:32.126Z,14.28
2022-11-07T13:40:08.292Z,14.37
2022-11-07T13:42:37.984Z,14.45
2022-11-07T13:45:27.931Z,14.58
2022-11-07T13:48:05.930Z,14.79
2022-11-07T13:50:50.887Z,14.85
2022-11-07T13:53:32.268Z,14.99
2022-11-07T13:56:10.764Z,15.16
2022-11-07T13:58:42.915Z,15.32
2022-11-07T14:01:14.671Z,15.45
2022-11-07T14:03:44.134Z,15.23
2022-11-07T14:06:15.581Z,14.90
2022-11-07T14:08:49.397Z,14.67
2022-11-07T14:11:22.771Z,14.45
2022-11-07T14:13:55.268Z,14.30
2022-11-07T14:16:30.573Z,14.22
2022-11-07T14:19:04.268Z,14.13
2022-11-07T14:21:37.229Z,14.10
2022-11-07T14:24:23.157Z,13.96
2022-11-07T14:27:05.151Z,13.88
2022-11-07T14:29:34.847Z,13.78
2022-11-07T14:32:08.300Z,13.72
2022-11-07T14:34:45.880Z,13.69
2022-11-07T14:37:21.105Z,13.60
2022-11-07T14:39:53.279Z,13.54
2022-11-07T14:42:25.493Z,13.40
2022-11-07T14:44:57.764Z,13.28
2022-11-07T14:47:32.381Z,13.16
2022-11-07T14:50:06.396Z,13.04
2022-11-07T14:52:42.416Z,12.92
2022-11-07T14:55:21.585Z,12.78
2022-11-07T14:57:52.036Z,12.70
2022-11-07T15:00:24.017Z,12.59
2022-11-07T15:02:59.216Z,12.48
2022-11-07T15:05:32.932Z,12.40
2022-11-07T15:08:02.501Z,12.30
2022-11-07T15:10:39.551Z,12.19
2022-11-07T15:13:26.217Z,12.06
2022-11-07T15:16:05.078Z,11.97
2022-11-07T15:18:40.526Z,11.85
2022-11-07T15:21:26.224Z,11.74
2022-11-07T15:23:55.697Z,11.64
2022-11-07T15:26:33.021Z,11.56
2022-11-07T15:29:20.875Z,11.44
2022-11-07T15:31:50.917Z,11.36
2022-11-07T15:34:45.204Z,11.32
2022-11-07T15:37:13.313Z,11.24
2022-11-07T15:39:42.822Z,11.13
2022-11-07T15:42:13.672Z,11.04
2022-11-07T15:44:43.772Z,10.93
2022-11-07T15:47:20.295Z,10.79
2022-11-07T15:49:50.354Z,10.64
2022-11-07T15:52:19.844Z,10.46
2022-11-07T15:54:49.268Z,10.32
2022-11-07T15:57:20.849Z,10.17
2022-11-07T15:59:50.520Z,10.05
2022-11-07T16:02:20.022Z,9.93
2022-11-07T16:04:49.564Z,9.80
2022-11-07T16:07:21.048Z,9.76
2022-11-07T16:09:50.568Z,9.69
2022-11-07T16:12:21.408Z,9.59
2022-11-07T16:14:51.071Z,9.51
2022-11-07T16:17:21.196Z,9.46
2022-11-07T16:19:50.595Z,9.45
2022-11-07T16:22:20.023Z,9.36
2022-11-07T16:24:49.446Z,9.24
2022-11-07T16:27:20.706Z,9.16
2022-11-07T16:29:50.191Z,9.05
2022-11-07T16:32:19.675Z,8.93
2022-11-07T16:34:49.166Z,8.81
2022-11-07T16:37:18.873Z,8.70
2022-11-07T16:39:48.260Z,8.58
2022-11-07T16:42:21.548Z,8.47
2022-11-07T16:44:51.052Z,8.38
2022-11-07T16:47:20.566Z,8.36
2022-11-07T16:49:53.524Z,8.31
2022-11-07T16:52:28.120Z,8.27
2022-11-07T16:54:57.520Z,8.20
2022-11-07T16:57:28.411Z,8.16
2022-11-07T16:59:57.792Z,8.09
2022-11-07T17:02:28.276Z,8.01
2022-11-07T17:04:57.722Z,7.95
2022-11-07T17:07:27.290Z,7.87
2022-11-07T17:09:56.687Z,7.82
2022-11-07T17:12:27.896Z,7.79
2022-11-07T17:14:57.297Z,7.76
2022-11-07T17:17:26.778Z,7.73
2022-11-07T17:19:56.169Z,7.71
2022-11-07T17:22:25.550Z,7.68
2022-11-07T17:24:54.968Z,7.63
2022-11-07T17:27:27.204Z,7.58
2022-11-07T17:29:57.004Z,7.54
2022-11-07T17:32:26.452Z,7.52
2022-11-07T17:35:18.232Z,7.45
2022-11-07T17:37:45.240Z,7.44
2022-11-07T17:40:22.404Z,7.39
2022-11-07T17:42:53.155Z,7.35
2022-11-07T17:45:22.614Z,7.29
2022-11-07T17:47:52.183Z,7.23
2022-11-07T17:50:23.784Z,7.20
2022-11-07T17:52:53.565Z,7.14
2022-11-07T17:55:24.553Z,7.09
2022-11-07T17:57:55.583Z,7.02
2022-11-07T18:00:27.931Z,6.94
2022-11-07T18:02:57.409Z,6.87
2022-11-07T18:05:32.842Z,6.84
2022-11-07T18:08:03.167Z,6.82
2022-11-07T18:10:32.873Z,6.79
2022-11-07T18:13:03.631Z,6.75
2022-11-07T18:15:33.045Z,6.71
2022-11-07T18:18:06.777Z,6.60
2022-11-07T18:20:39.135Z,6.53
2022-11-07T18:23:08.577Z,6.45
2022-11-07T18:25:38.579Z,6.40
2022-11-07T18:28:09.315Z,6.33
2022-11-07T18:30:38.682Z,6.26
2022-11-07T18:33:08.087Z,6.21
2022-11-07T18:35:37.503Z,6.17
2022-11-07T18:38:06.931Z,6.10
2022-11-07T18:40:36.411Z,6.04
2022-11-07T18:43:05.804Z,5.99
2022-11-07T18:45:36.576Z,5.96
2022-11-07T18:48:06.777Z,5.94
2022-11-07T18:50:39.867Z,5.93
2022-11-07T18:53:09.366Z,5.93
2022-11-07T18:55:38.736Z,5.91
2022-11-07T18:58:08.321Z,5.88
2022-11-07T19:00:39.319Z,5.82
2022-11-07T19:03:08.728Z,5.77
2022-11-07T19:05:41.182Z,5.73
2022-11-07T19:08:10.810Z,5.68
2022-11-07T19:10:40.360Z,5.65
2022-11-07T19:13:09.768Z,5.62
2022-11-07T19:15:41.345Z,5.63
2022-11-07T19:18:10.873Z,5.71
2022-11-07T19:20:40.714Z,5.79
2022-11-07T19:23:11.432Z,5.85
2022-11-07T19:25:41.607Z,5.88
2022-11-07T19:28:11.452Z,5.90
2022-11-07T19:30:43.018Z,5.90
2022-11-07T19:33:13.030Z,5.88
2022-11-07T19:35:43.373Z,5.88
2022-11-07T19:38:15.042Z,5.88
2022-11-07T19:40:50.457Z,5.89
2022-11-07T19:43:20.106Z,5.87
2022-11-07T19:45:50.986Z,5.84
2022-11-07T19:48:20.415Z,5.81
2022-11-07T19:50:49.820Z,5.79
2022-11-07T19:53:21.370Z,5.75
2022-11-07T19:55:50.843Z,5.74
2022-11-07T19:58:20.255Z,5.72
2022-11-07T20:00:51.093Z,5.70
2022-11-07T20:03:21.563Z,5.70
2022-11-07T20:05:51.808Z,5.71
2022-11-07T20:08:21.213Z,5.72
2022-11-07T20:10:51.671Z,5.74
2022-11-07T20:13:21.160Z,5.74
2022-11-07T20:15:51.909Z,5.82
2022-11-07T20:18:21.494Z,5.87
2022-11-07T20:20:51.184Z,5.90
2022-11-07T20:23:20.760Z,5.91
2022-11-07T20:25:50.234Z,5.98
2022-11-07T20:28:19.676Z,6.03
2022-11-07T20:30:49.154Z,6.10
2022-11-07T20:33:20.233Z,6.12
2022-11-07T20:36:00.718Z,6.14
2022-11-07T20:38:30.704Z,6.13
2022-11-07T20:41:00.705Z,6.13
2022-11-07T20:43:30.613Z,6.26
2022-11-07T20:46:05.615Z,6.26
2022-11-07T20:48:37.194Z,6.30
2022-11-07T20:51:11.110Z,6.29
2022-11-07T20:53:46.744Z,6.30
2022-11-07T20:56:19.510Z,6.35
2022-11-07T20:58:50.064Z,6.36
2022-11-07T21:01:27.416Z,6.36
2022-11-07T21:04:00.799Z,6.37
2022-11-07T21:06:30.463Z,6.39
2022-11-07T21:08:59.985Z,6.37
2022-11-07T21:11:31.107Z,6.36
2022-11-07T21:14:00.797Z,6.30
2022-11-07T21:16:34.409Z,6.23
2022-11-07T21:19:06.892Z,6.11
2022-11-07T21:21:36.252Z,6.00
2022-11-07T21:24:06.444Z,5.90
2022-11-07T21:26:39.917Z,5.80
2022-11-07T21:29:10.955Z,5.69
2022-11-07T21:31:42.052Z,5.64
2022-11-07T21:34:12.912Z,5.59
2022-11-07T21:36:42.596Z,5.65
2022-11-07T21:39:12.459Z,5.68
2022-11-07T21:41:41.815Z,5.73
2022-11-07T21:44:12.623Z,5.83
2022-11-07T21:46:42.048Z,5.90
2022-11-07T21:49:12.827Z,5.91
2022-11-07T21:51:42.456Z,5.89
2022-11-07T21:54:12.711Z,5.89
2022-11-07T21:56:42.108Z,5.88
2022-11-07T21:59:13.330Z,5.85
2022-11-07T22:01:43.467Z,5.82
2022-11-07T22:04:14.288Z,5.80
2022-11-07T22:06:45.760Z,5.76
2022-11-07T22:09:18.411Z,5.71
2022-11-07T22:11:47.967Z,5.66
2022-11-07T22:14:20.949Z,5.59
2022-11-07T22:16:56.098Z,5.52
2022-11-07T22:19:27.758Z,5.46
2022-11-07T22:21:57.125Z,5.37
2022-11-07T22:24:27.246Z,5.31
2022-11-07T22:26:57.213Z,5.29
2022-11-07T22:29:26.728Z,5.28
2022-11-07T22:31:56.142Z,5.28
2022-11-07T22:34:27.069Z,5.27
2022-11-07T22:36:56.471Z,5.19
2022-11-07T22:39:25.867Z,5.08
2022-11-07T22:41:55.217Z,4.98
2022-11-07T22:44:24.667Z,4.89
2022-11-07T22:46:56.754Z,4.81
2022-11-07T22:49:27.544Z,4.71
2022-11-07T22:51:56.959Z,4.62
2022-11-07T22:54:26.326Z,4.55
2022-11-07T22:56:55.707Z,4.48
2022-11-07T22:59:25.090Z,4.40
2022-11-07T23:01:54.675Z,4.33
2022-11-07T23:04:26.441Z,4.29
2022-11-07T23:07:00.801Z,4.25
2022-11-07T23:09:30.230Z,4.19
2022-11-07T23:12:00.449Z,4.13
2022-11-07T23:14:29.954Z,4.07
2022-11-07T23:16:59.341Z,3.99
2022-11-07T23:19:28.826Z,3.92
2022-11-07T23:21:59.306Z,3.82
2022-11-07T23:24:30.215Z,3.73
2022-11-07T23:26:59.692Z,3.67
2022-11-07T23:29:29.132Z,3.63
2022-11-07T23:31:58.492Z,3.59
2022-11-07T23:34:29.126Z,3.57
2022-11-07T23:36:58.692Z,3.50
2022-11-07T23:39:30.252Z,3.41
2022-11-07T23:41:59.640Z,3.36
2022-11-07T23:44:28.990Z,3.34
2022-11-07T23:47:15.977Z,3.33
2022-11-07T23:50:02.955Z,3.34
2022-11-07T23:52:32.319Z,3.34
2022-11-07T23:55:20.666Z,3.32
2022-11-07T23:58:07.576Z,3.32
